createdAt,value
2023-04-27T00:02:20.959Z,6.43
2023-04-27T00:04:50.996Z,5.97
2023-04-27T00:07:19.008Z,6.22
2023-04-27T00:09:46.783Z,6.57
2023-04-27T00:12:15.217Z,6.20
2023-04-27T00:14:43.011Z,6.25
2023-04-27T00:17:10.978Z,6.38
2023-04-27T00:19:40.207Z,6.70
2023-04-27T00:22:09.614Z,6.32
2023-04-27T00:24:37.450Z,6.35
2023-04-27T00:27:06.275Z,6.05
2023-04-27T00:29:34.290Z,6.25
2023-04-27T00:32:02.158Z,6.63
2023-04-27T00:34:30.562Z,6.00
2023-04-27T00:36:58.865Z,5.78
2023-04-27T00:39:27.996Z,6.63
2023-04-27T00:41:56.351Z,6.30
2023-04-27T00:44:25.142Z,6.30
2023-04-27T00:46:53.711Z,5.77
2023-04-27T00:49:23.086Z,6.00
2023-04-27T00:51:50.960Z,5.63
2023-04-27T00:54:21.838Z,6.68
2023-04-27T00:56:52.258Z,6.45
2023-04-27T00:59:20.540Z,6.30
2023-04-27T01:01:48.735Z,6.30
2023-04-27T01:04:17.349Z,6.00
2023-04-27T01:06:45.543Z,5.88
2023-04-27T01:09:13.916Z,6.32
2023-04-27T01:11:42.528Z,6.75
2023-04-27T01:14:11.718Z,6.70
2023-04-27T01:16:39.554Z,6.72
2023-04-27T01:19:09.329Z,6.65
2023-04-27T01:24:07.488Z,6.15
2023-04-27T01:26:36.238Z,6.65
2023-04-27T01:29:04.053Z,6.70
2023-04-27T01:31:32.233Z,5.80
2023-04-27T01:34:00.829Z,6.28
2023-04-27T01:36:28.746Z,6.47
2023-04-27T01:38:56.642Z,6.35
2023-04-27T01:41:26.429Z,6.90
2023-04-27T01:43:54.199Z,6.55
2023-04-27T01:46:22.117Z,6.63
2023-04-27T01:48:50.429Z,6.13
2023-04-27T01:51:18.206Z,6.43
2023-04-27T01:53:45.993Z,6.07
2023-04-27T01:56:13.814Z,6.72
2023-04-27T01:58:43.026Z,6.45
2023-04-27T02:01:11.484Z,6.93
2023-04-27T02:03:39.803Z,6.55
2023-04-27T02:06:08.223Z,6.38
2023-04-27T02:08:36.024Z,6.05
2023-04-27T02:11:04.308Z,6.82
2023-04-27T02:13:32.063Z,6.47
2023-04-27T02:16:02.208Z,6.70
2023-04-27T02:18:30.419Z,6.65
2023-04-27T02:20:58.172Z,6.95
2023-04-27T02:23:26.045Z,6.32
2023-04-27T02:25:54.169Z,6.88
2023-04-27T02:28:21.969Z,6.70
2023-04-27T02:30:50.213Z,6.90
2023-04-27T02:33:19.747Z,6.63
2023-04-27T02:35:47.514Z,6.57
2023-04-27T02:38:15.774Z,6.80
2023-04-27T02:40:44.076Z,7.05
2023-04-27T02:43:11.981Z,6.53
2023-04-27T02:45:39.763Z,7.55
2023-04-27T02:48:08.287Z,6.68
2023-04-27T02:50:41.906Z,6.97
2023-04-27T02:53:10.230Z,6.68
2023-04-27T02:55:38.420Z,7.00
2023-04-27T02:58:06.234Z,7.07
2023-04-27T03:00:34.623Z,6.78
2023-04-27T03:03:03.017Z,6.72
2023-04-27T03:05:31.809Z,6.85
2023-04-27T03:08:01.869Z,6.97
2023-04-27T03:10:29.698Z,7.18
2023-04-27T03:12:57.476Z,6.40
2023-04-27T03:15:25.586Z,7.15
2023-04-27T03:17:53.460Z,6.93
2023-04-27T03:20:23.013Z,7.45
2023-04-27T03:22:51.119Z,6.72
2023-04-27T03:25:20.470Z,7.07
2023-04-27T03:27:48.262Z,7.20
2023-04-27T03:30:16.850Z,7.55
2023-04-27T03:32:47.063Z,7.30
2023-04-27T03:35:15.767Z,7.13
2023-04-27T03:37:46.247Z,6.63
2023-04-27T03:40:15.494Z,7.30
2023-04-27T03:42:44.674Z,6.80
2023-04-27T03:45:13.203Z,7.93
2023-04-27T03:47:41.179Z,7.20
2023-04-27T03:50:09.825Z,7.07
2023-04-27T03:52:37.910Z,7.57
2023-04-27T03:55:07.308Z,7.43
2023-04-27T03:57:35.118Z,7.28
2023-04-27T04:00:11.419Z,7.63
2023-04-27T04:02:39.388Z,7.20
2023-04-27T04:05:07.751Z,8.48
2023-04-27T04:07:35.940Z,8.05
2023-04-27T04:10:03.876Z,6.90
2023-04-27T04:12:31.703Z,7.07
2023-04-27T04:14:59.826Z,7.32
2023-04-27T04:17:29.313Z,8.15
2023-04-27T04:19:57.114Z,8.15
2023-04-27T04:22:25.288Z,8.02
2023-04-27T04:24:53.586Z,7.50
2023-04-27T04:27:21.403Z,7.68
2023-04-27T04:29:49.466Z,5.97
2023-04-27T04:32:19.562Z,6.50
2023-04-27T04:34:52.053Z,6.57
2023-04-27T04:37:19.816Z,7.78
2023-04-27T04:39:47.628Z,7.80
2023-04-27T04:42:16.107Z,8.57
2023-04-27T04:44:44.662Z,8.90
2023-04-27T04:47:13.106Z,8.70
2023-04-27T04:49:41.624Z,9.35
2023-04-27T04:52:10.861Z,8.85
2023-04-27T04:54:38.624Z,8.32
2023-04-27T04:57:08.174Z,8.95
2023-04-27T04:59:36.038Z,8.20
2023-04-27T05:02:03.825Z,8.90
2023-04-27T05:04:32.853Z,9.52
2023-04-27T05:07:01.258Z,9.20
2023-04-27T05:09:30.482Z,9.13
2023-04-27T05:11:58.822Z,9.10
2023-04-27T05:14:26.947Z,9.18
2023-04-27T05:16:54.712Z,10.13
2023-04-27T05:19:22.698Z,10.40
2023-04-27T05:21:50.532Z,10.27
2023-04-27T05:24:18.342Z,9.85
2023-04-27T05:26:48.138Z,9.65
2023-04-27T05:29:16.422Z,10.50
2023-04-27T05:31:44.500Z,11.05
2023-04-27T05:34:13.741Z,10.18
2023-04-27T05:36:41.562Z,10.80
2023-04-27T05:39:09.377Z,10.77
2023-04-27T05:41:37.296Z,10.82
2023-04-27T05:44:06.652Z,10.55
2023-04-27T05:46:36.441Z,11.35
2023-04-27T05:49:05.823Z,10.35
2023-04-27T05:51:34.288Z,11.25
2023-04-27T05:54:02.202Z,11.00
2023-04-27T05:56:30.562Z,10.48
2023-04-27T05:58:59.476Z,11.38
2023-04-27T06:01:29.717Z,11.00
2023-04-27T06:04:02.052Z,10.63
2023-04-27T06:06:32.960Z,10.57
2023-04-27T06:09:01.288Z,11.40
2023-04-27T06:11:29.194Z,11.15
2023-04-27T06:13:57.059Z,10.93
2023-04-27T06:16:25.547Z,11.45
2023-04-27T06:18:54.746Z,10.20
2023-04-27T06:21:22.498Z,10.50
2023-04-27T06:23:51.085Z,10.32
2023-04-27T06:26:18.880Z,10.68
2023-04-27T06:28:46.775Z,11.00
2023-04-27T06:31:15.882Z,10.95
2023-04-27T06:33:43.727Z,10.88
2023-04-27T06:36:12.905Z,11.07
2023-04-27T06:38:41.654Z,10.95
2023-04-27T06:41:09.497Z,11.07
2023-04-27T06:43:37.286Z,10.75
2023-04-27T06:46:06.705Z,10.40
2023-04-27T06:48:35.029Z,10.57
2023-04-27T06:51:02.810Z,11.02
2023-04-27T06:53:32.566Z,10.27
2023-04-27T06:56:00.442Z,11.20
2023-04-27T06:58:28.272Z,11.27
2023-04-27T07:00:57.922Z,11.50
2023-04-27T07:05:54.160Z,10.65
2023-04-27T07:08:22.556Z,11.38
2023-04-27T07:10:51.762Z,11.40
2023-04-27T07:13:19.577Z,10.77
2023-04-27T07:15:47.954Z,10.95
2023-04-27T07:18:16.026Z,11.40
2023-04-27T07:20:43.977Z,11.35
2023-04-27T07:23:12.292Z,11.68
2023-04-27T07:25:40.463Z,11.95
2023-04-27T07:28:09.922Z,12.00
2023-04-27T07:30:38.601Z,11.23
2023-04-27T07:33:07.234Z,11.93
2023-04-27T07:35:35.384Z,12.30
2023-04-27T07:38:04.361Z,12.02
2023-04-27T07:40:32.776Z,11.45
2023-04-27T07:43:00.622Z,12.18
2023-04-27T07:45:33.465Z,13.27
2023-04-27T07:48:02.476Z,12.63
2023-04-27T07:50:31.029Z,13.10
2023-04-27T07:52:59.406Z,11.98
2023-04-27T07:55:28.665Z,12.18
2023-04-27T07:57:57.763Z,12.23
2023-04-27T08:00:26.968Z,13.00
2023-04-27T08:02:56.591Z,13.32
2023-04-27T08:05:25.025Z,13.07
2023-04-27T08:07:54.828Z,13.57
2023-04-27T08:12:50.720Z,14.40
2023-04-27T08:15:19.214Z,13.70
2023-04-27T08:17:47.362Z,13.85
2023-04-27T08:20:16.820Z,14.02
2023-04-27T08:22:45.828Z,13.10
2023-04-27T08:25:13.671Z,14.18
2023-04-27T08:27:41.777Z,13.88
2023-04-27T08:30:11.714Z,13.73
2023-04-27T08:32:40.104Z,13.30
2023-04-27T08:35:08.353Z,14.88
2023-04-27T08:37:38.061Z,13.95
2023-04-27T08:40:08.059Z,13.57
2023-04-27T08:42:35.942Z,14.18
2023-04-27T08:45:04.693Z,13.63
2023-04-27T08:47:42.532Z,14.13
2023-04-27T08:50:12.764Z,12.63
2023-04-27T08:52:44.758Z,13.00
2023-04-27T08:55:15.729Z,13.77
2023-04-27T08:57:55.363Z,14.68
2023-04-27T09:00:23.792Z,13.57
2023-04-27T09:02:51.809Z,13.88
2023-04-27T09:05:20.686Z,13.38
2023-04-27T09:08:01.359Z,13.18
2023-04-27T09:10:30.013Z,12.25
2023-04-27T09:13:02.443Z,11.70
2023-04-27T09:15:30.373Z,13.43
2023-04-27T09:17:58.884Z,13.25
2023-04-27T09:20:29.188Z,13.13
2023-04-27T09:22:58.508Z,12.25
2023-04-27T09:27:58.578Z,11.32
2023-04-27T09:32:56.033Z,11.80
2023-04-27T09:37:53.899Z,11.65
2023-04-27T09:40:27.088Z,10.68
2023-04-27T09:42:57.912Z,12.82
2023-04-27T09:45:26.527Z,11.95
2023-04-27T09:47:55.604Z,10.93
2023-04-27T09:50:23.553Z,11.55
2023-04-27T09:52:51.541Z,10.45
2023-04-27T09:55:26.070Z,10.43
2023-04-27T09:58:07.761Z,10.35
2023-04-27T10:00:49.792Z,9.48
2023-04-27T10:03:24.810Z,9.48
2023-04-27T10:06:37.224Z,9.57
2023-04-27T10:09:06.628Z,10.77
2023-04-27T10:11:40.075Z,9.93
2023-04-27T10:14:11.832Z,10.00
2023-04-27T10:16:47.105Z,9.80
2023-04-27T10:19:15.641Z,9.30
2023-04-27T10:21:54.915Z,9.40
2023-04-27T10:24:33.614Z,9.43
2023-04-27T10:27:07.099Z,9.77
2023-04-27T10:29:41.822Z,9.15
2023-04-27T10:32:11.964Z,9.80
2023-04-27T10:34:41.531Z,11.00
2023-04-27T10:39:48.450Z,10.02
2023-04-27T10:42:28.615Z,9.60
2023-04-27T10:44:59.659Z,8.88
2023-04-27T10:47:38.690Z,9.05
2023-04-27T10:50:08.925Z,9.40
2023-04-27T10:52:36.750Z,10.70
2023-04-27T10:55:18.537Z,10.02
2023-04-27T10:57:51.042Z,10.93
2023-04-27T11:00:26.113Z,10.73
2023-04-27T11:02:54.702Z,10.45
2023-04-27T11:05:29.641Z,10.00
2023-04-27T11:08:06.984Z,10.57
2023-04-27T11:10:36.252Z,11.15
2023-04-27T11:13:11.636Z,10.65
2023-04-27T11:15:51.879Z,9.27
2023-04-27T11:18:21.313Z,9.77
2023-04-27T11:20:51.705Z,9.85
2023-04-27T11:23:26.862Z,10.27
2023-04-27T11:25:55.241Z,10.02
2023-04-27T11:28:24.103Z,11.07
2023-04-27T11:30:59.728Z,9.80
2023-04-27T11:33:27.993Z,9.63
2023-04-27T11:35:56.661Z,9.43
2023-04-27T11:38:25.184Z,9.90
2023-04-27T11:41:03.519Z,9.75
2023-04-27T11:43:31.737Z,10.02
2023-04-27T11:46:04.099Z,9.82
2023-04-27T11:48:32.329Z,10.02
2023-04-27T11:51:01.448Z,9.85
2023-04-27T11:53:34.413Z,10.70
2023-04-27T11:56:05.120Z,9.38
2023-04-27T11:58:35.514Z,10.07
2023-04-27T12:01:05.499Z,10.48
2023-04-27T12:03:33.736Z,10.90
2023-04-27T12:08:33.387Z,9.93
2023-04-27T12:11:01.220Z,10.48
2023-04-27T12:13:29.091Z,10.77
2023-04-27T12:15:58.465Z,9.90
2023-04-27T12:18:28.293Z,9.88
2023-04-27T12:20:56.722Z,10.13
2023-04-27T12:23:24.537Z,9.60
2023-04-27T12:25:52.364Z,9.68
2023-04-27T12:28:21.007Z,10.52
2023-04-27T12:30:49.783Z,11.00
2023-04-27T12:33:17.726Z,9.60
2023-04-27T12:35:46.894Z,10.25
2023-04-27T12:38:14.681Z,10.55
2023-04-27T12:40:42.556Z,10.50
2023-04-27T12:43:10.996Z,10.00
2023-04-27T12:45:38.775Z,10.52
2023-04-27T12:48:07.304Z,9.98
2023-04-27T12:50:38.005Z,9.65
2023-04-27T12:53:07.388Z,8.80
2023-04-27T12:55:35.228Z,10.30
2023-04-27T12:58:04.762Z,9.68
2023-04-27T13:03:00.559Z,9.05
2023-04-27T13:05:31.271Z,10.35
2023-04-27T13:07:59.820Z,10.48
2023-04-27T13:10:29.681Z,10.02
2023-04-27T13:12:57.876Z,9.70
2023-04-27T13:15:25.653Z,9.68
2023-04-27T13:17:54.902Z,9.50
2023-04-27T13:20:22.813Z,8.95
2023-04-27T13:22:50.597Z,8.57
2023-04-27T13:25:20.435Z,9.40
2023-04-27T13:27:50.173Z,10.05
2023-04-27T13:30:18.096Z,9.77
2023-04-27T13:32:46.474Z,9.90
2023-04-27T13:35:14.528Z,8.70
2023-04-27T13:37:42.781Z,9.45
2023-04-27T13:40:12.751Z,9.05
2023-04-27T13:42:41.091Z,9.13
2023-04-27T13:45:11.450Z,8.95
2023-04-27T13:47:40.836Z,9.23
2023-04-27T13:50:10.567Z,9.07
2023-04-27T13:52:40.311Z,9.20
2023-04-27T13:55:10.219Z,9.10
2023-04-27T13:57:38.905Z,9.20
2023-04-27T14:00:11.500Z,8.60
2023-04-27T14:02:41.065Z,8.98
2023-04-27T14:05:09.573Z,8.55
2023-04-27T14:07:37.661Z,9.10
2023-04-27T14:10:06.296Z,9.15
2023-04-27T14:12:34.156Z,9.80
2023-04-27T14:15:02.165Z,9.02
2023-04-27T14:17:29.924Z,9.50
2023-04-27T14:20:07.648Z,9.63
2023-04-27T14:22:36.916Z,10.18
2023-04-27T14:25:04.962Z,10.48
2023-04-27T14:27:33.085Z,10.10
2023-04-27T14:30:02.085Z,11.30
2023-04-27T14:32:29.891Z,9.80
2023-04-27T14:34:58.072Z,10.80
2023-04-27T14:37:27.619Z,10.77
2023-04-27T14:42:24.114Z,10.13
2023-04-27T14:44:51.880Z,11.02
2023-04-27T14:47:19.808Z,10.70
2023-04-27T14:49:48.132Z,11.10
2023-04-27T14:52:15.908Z,9.80
2023-04-27T14:54:45.068Z,10.43
2023-04-27T14:57:13.341Z,10.35
2023-04-27T14:59:41.136Z,11.02
2023-04-27T15:02:08.913Z,10.98
2023-04-27T15:04:38.090Z,10.55
2023-04-27T15:07:06.399Z,12.38
2023-04-27T15:09:35.047Z,10.75
2023-04-27T15:12:05.578Z,11.97
2023-04-27T15:14:33.345Z,13.13
2023-04-27T15:17:01.270Z,12.23
2023-04-27T15:19:29.670Z,10.45
2023-04-27T15:21:57.438Z,12.30
2023-04-27T15:24:25.248Z,11.57
2023-04-27T15:26:53.488Z,12.50
2023-04-27T15:29:22.648Z,12.73
2023-04-27T15:31:50.707Z,12.75
2023-04-27T15:34:19.069Z,11.27
2023-04-27T15:36:46.878Z,11.57
2023-04-27T15:39:14.833Z,12.23
2023-04-27T15:41:43.382Z,12.23
2023-04-27T15:44:11.285Z,12.25
2023-04-27T15:46:40.463Z,12.57
2023-04-27T15:49:08.725Z,12.02
2023-04-27T15:51:36.484Z,12.80
2023-04-27T15:54:04.436Z,13.20
2023-04-27T15:56:32.769Z,13.15
2023-04-27T15:59:00.544Z,12.20
2023-04-27T16:01:28.506Z,12.88
2023-04-27T16:03:58.510Z,11.95
2023-04-27T16:06:31.917Z,11.90
2023-04-27T16:09:00.580Z,13.13
2023-04-27T16:11:28.377Z,13.23
2023-04-27T16:13:56.152Z,13.43
2023-04-27T16:16:24.699Z,12.93
2023-04-27T16:18:52.462Z,13.32
2023-04-27T16:21:21.748Z,13.30
2023-04-27T16:23:50.218Z,12.32
2023-04-27T16:26:18.013Z,12.85
2023-04-27T16:28:45.840Z,12.45
2023-04-27T16:31:14.490Z,12.25
2023-04-27T16:33:42.246Z,12.07
2023-04-27T16:36:12.012Z,12.40
2023-04-27T16:38:41.807Z,12.18
2023-04-27T16:41:09.569Z,11.95
2023-04-27T16:43:37.304Z,12.77
2023-04-27T16:46:06.662Z,12.95
2023-04-27T16:48:35.736Z,13.13
2023-04-27T16:51:03.793Z,12.75
2023-04-27T16:53:32.160Z,13.88
2023-04-27T16:56:02.145Z,14.82
2023-04-27T16:58:30.904Z,14.40
2023-04-27T17:00:59.491Z,13.50
2023-04-27T17:03:27.700Z,13.67
2023-04-27T17:05:55.576Z,14.43
2023-04-27T17:08:23.894Z,13.63
2023-04-27T17:10:51.651Z,13.05
2023-04-27T17:13:20.771Z,13.40
2023-04-27T17:15:49.332Z,14.57
2023-04-27T17:18:17.198Z,13.90
2023-04-27T17:20:44.979Z,14.00
2023-04-27T17:23:12.939Z,14.15
2023-04-27T17:25:41.533Z,13.68
2023-04-27T17:28:09.496Z,13.27
2023-04-27T17:30:38.985Z,14.45
2023-04-27T17:33:06.940Z,16.35
2023-04-27T17:35:34.800Z,16.42
2023-04-27T17:38:03.037Z,14.95
2023-04-27T17:40:31.971Z,14.35
2023-04-27T17:43:00.116Z,14.02
2023-04-27T17:45:29.082Z,13.90
2023-04-27T17:47:58.257Z,14.23
2023-04-27T17:50:26.584Z,14.52
2023-04-27T17:52:54.791Z,14.00
2023-04-27T17:55:23.467Z,14.52
2023-04-27T17:57:51.544Z,13.83
2023-04-27T18:00:20.013Z,13.98
2023-04-27T18:02:49.690Z,15.40
2023-04-27T18:05:19.145Z,15.73
2023-04-27T18:07:47.422Z,15.32
2023-04-27T18:10:15.221Z,14.73
2023-04-27T18:12:43.146Z,14.65
2023-04-27T18:15:11.851Z,14.40
2023-04-27T18:17:39.651Z,14.30
2023-04-27T18:20:10.464Z,13.80
2023-04-27T18:22:41.647Z,14.70
2023-04-27T18:25:10.911Z,14.25
2023-04-27T18:27:38.711Z,14.50
2023-04-27T18:30:08.777Z,13.70
2023-04-27T18:32:36.989Z,15.07
2023-04-27T18:35:05.633Z,15.40
2023-04-27T18:37:33.969Z,15.10
2023-04-27T18:40:04.854Z,15.18
2023-04-27T18:42:32.668Z,13.70
2023-04-27T18:45:01.809Z,13.75
2023-04-27T18:47:29.660Z,13.65
2023-04-27T18:49:57.436Z,13.10
2023-04-27T18:52:25.817Z,14.57
2023-04-27T18:54:53.587Z,14.00
2023-04-27T18:57:23.017Z,13.18
2023-04-27T18:59:51.313Z,13.80
2023-04-27T19:02:19.167Z,12.55
2023-04-27T19:04:52.917Z,13.18
2023-04-27T19:07:30.367Z,12.70
2023-04-27T19:09:58.142Z,14.10
2023-04-27T19:12:27.325Z,13.73
2023-04-27T19:14:55.646Z,13.75
2023-04-27T19:17:23.483Z,13.82
2023-04-27T19:19:51.286Z,16.67
2023-04-27T19:22:19.615Z,15.50
2023-04-27T19:24:47.340Z,15.57
2023-04-27T19:27:15.159Z,15.85
2023-04-27T19:29:52.580Z,15.13
2023-04-27T19:32:21.297Z,14.98
2023-04-27T19:34:49.763Z,14.77
2023-04-27T19:37:18.228Z,14.57
2023-04-27T19:39:46.876Z,13.93
2023-04-27T19:42:15.159Z,14.67
2023-04-27T19:44:43.531Z,14.38
2023-04-27T19:47:12.701Z,14.02
2023-04-27T19:49:40.482Z,14.57
2023-04-27T19:52:08.809Z,15.50
2023-04-27T19:54:38.209Z,15.13
2023-04-27T19:57:06.116Z,14.57
2023-04-27T19:59:34.270Z,14.57
2023-04-27T20:02:02.072Z,14.68
2023-04-27T20:04:31.422Z,15.48
2023-04-27T20:06:59.952Z,15.05
2023-04-27T20:09:27.823Z,15.05
2023-04-27T20:11:56.019Z,16.05
2023-04-27T20:14:24.718Z,14.90
2023-04-27T20:16:52.425Z,16.23
2023-04-27T20:19:20.842Z,16.02
2023-04-27T20:21:50.259Z,16.08
2023-04-27T20:24:18.197Z,16.38
2023-04-27T20:26:46.393Z,16.25
2023-04-27T20:29:14.480Z,15.88
2023-04-27T20:31:42.566Z,17.17
2023-04-27T20:34:10.364Z,16.60
2023-04-27T20:36:38.354Z,16.15
2023-04-27T20:39:09.006Z,17.80
2023-04-27T20:41:38.648Z,16.90
2023-04-27T20:46:34.111Z,15.90
2023-04-27T20:49:02.127Z,16.33
2023-04-27T20:51:29.982Z,15.82
2023-04-27T20:53:57.746Z,15.15
2023-04-27T20:56:27.404Z,15.95
2023-04-27T21:01:22.774Z,15.20
2023-04-27T21:03:51.009Z,16.02
2023-04-27T21:06:19.231Z,16.83
2023-04-27T21:08:47.080Z,16.48
2023-04-27T21:11:17.363Z,16.23
2023-04-27T21:13:47.289Z,16.50
2023-04-27T21:16:15.244Z,15.82
2023-04-27T21:18:43.113Z,16.17
2023-04-27T21:21:10.916Z,15.52
2023-04-27T21:23:39.093Z,15.43
2023-04-27T21:26:08.382Z,16.77
2023-04-27T21:28:36.931Z,16.08
2023-04-27T21:31:06.885Z,15.43
2023-04-27T21:33:34.663Z,15.40
2023-04-27T21:36:04.591Z,16.40
2023-04-27T21:38:32.432Z,16.67
2023-04-27T21:41:00.251Z,15.23
2023-04-27T21:43:28.522Z,15.48
2023-04-27T21:45:56.675Z,15.65
2023-04-27T21:48:25.948Z,15.45
2023-04-27T21:50:53.749Z,15.57
2023-04-27T21:53:21.742Z,16.83
2023-04-27T21:55:51.078Z,15.93
2023-04-27T21:58:18.859Z,15.55
2023-04-27T22:00:46.986Z,16.55
2023-04-27T22:03:14.904Z,15.90
2023-04-27T22:05:45.392Z,15.50
2023-04-27T22:08:13.655Z,15.90
2023-04-27T22:10:41.675Z,15.30
2023-04-27T22:13:18.991Z,16.02
2023-04-27T22:15:47.998Z,15.60
2023-04-27T22:18:16.115Z,15.52
2023-04-27T22:20:46.365Z,15.13
2023-04-27T22:23:14.276Z,15.88
2023-04-27T22:25:43.218Z,16.00
2023-04-27T22:28:11.813Z,14.00
2023-04-27T22:30:41.054Z,15.27
2023-04-27T22:33:09.187Z,15.52
2023-04-27T22:35:38.439Z,15.63
2023-04-27T22:38:08.101Z,16.60
2023-04-27T22:40:36.316Z,16.25
2023-04-27T22:43:04.231Z,15.77
2023-04-27T22:45:31.994Z,16.15
2023-04-27T22:47:59.892Z,15.57
2023-04-27T22:50:28.117Z,15.23
2023-04-27T22:52:55.900Z,15.77
2023-04-27T22:55:25.337Z,17.00
2023-04-27T22:57:54.157Z,16.42
2023-04-27T23:00:22.117Z,16.15
2023-04-27T23:02:50.078Z,16.45
2023-04-27T23:05:18.444Z,16.05
2023-04-27T23:07:46.412Z,16.40
2023-04-27T23:10:15.207Z,16.35
2023-04-27T23:12:44.679Z,15.68
2023-04-27T23:15:13.004Z,16.02
2023-04-27T23:17:41.252Z,16.88
2023-04-27T23:20:26.618Z,16.55
2023-04-27T23:22:56.309Z,16.02
2023-04-27T23:25:24.461Z,15.65
2023-04-27T23:27:53.611Z,16.83
2023-04-27T23:30:22.392Z,17.33
2023-04-27T23:32:50.746Z,17.30
2023-04-27T23:35:18.706Z,16.98
2023-04-27T23:37:46.467Z,17.88
2023-04-27T23:40:14.606Z,18.10
2023-04-27T23:42:42.405Z,18.90
2023-04-27T23:45:12.441Z,18.50
2023-04-27T23:47:43.248Z,19.02
2023-04-27T23:50:11.727Z,18.88
2023-04-27T23:52:39.497Z,19.10
2023-04-27T23:55:08.566Z,19.77
2023-04-27T23:57:36.332Z,19.63
